createdAt,value
2023-02-27T00:01:47.779Z,29.70
2023-02-27T00:04:17.058Z,30.50
2023-02-27T00:06:45.918Z,35.70
2023-02-27T00:09:24.478Z,34.90
2023-02-27T00:11:53.774Z,34.80
2023-02-27T00:14:22.808Z,41.50
2023-02-27T00:16:59.218Z,38.30
2023-02-27T00:19:29.913Z,37.90
2023-02-27T00:21:58.775Z,35.60
2023-02-27T00:24:34.638Z,37.00
2023-02-27T00:27:09.868Z,27.60
2023-02-27T00:29:39.938Z,31.80
2023-02-27T00:32:09.746Z,30.60
2023-02-27T00:34:38.719Z,26.30
2023-02-27T00:37:07.345Z,22.10
2023-02-27T00:39:37.409Z,21.30
2023-02-27T00:42:09.557Z,17.80
2023-02-27T00:44:40.783Z,10.90
2023-02-27T00:47:09.506Z,8.70
2023-02-27T00:49:38.500Z,7.90
2023-02-27T00:52:07.387Z,7.40
2023-02-27T00:54:38.631Z,9.10
2023-02-27T00:57:07.733Z,7.00
2023-02-27T00:59:36.622Z,9.20
2023-02-27T01:02:05.543Z,8.40
2023-02-27T01:04:37.438Z,9.20
2023-02-27T01:07:07.220Z,8.40
2023-02-27T01:09:35.890Z,9.70
2023-02-27T01:12:04.537Z,12.50
2023-02-27T01:14:33.584Z,18.20
2023-02-27T01:17:02.442Z,28.20
2023-02-27T01:19:31.291Z,31.60
2023-02-27T01:21:59.820Z,28.50
2023-02-27T01:24:30.805Z,35.70
2023-02-27T01:26:59.796Z,35.30
2023-02-27T01:29:29.152Z,41.60
2023-02-27T01:31:57.994Z,42.30
2023-02-27T01:34:26.796Z,43.20
2023-02-27T01:36:55.410Z,44.60
2023-02-27T01:39:25.123Z,48.20
2023-02-27T01:41:53.769Z,40.80
2023-02-27T01:44:22.616Z,41.90
2023-02-27T01:46:53.090Z,37.30
2023-02-27T01:49:31.597Z,30.30
2023-02-27T01:52:08.628Z,23.70
2023-02-27T01:54:40.059Z,22.00
2023-02-27T01:57:08.636Z,21.60
2023-02-27T01:59:39.941Z,22.80
2023-02-27T02:02:14.632Z,23.90
2023-02-27T02:04:43.156Z,19.20
2023-02-27T02:07:17.350Z,20.80
2023-02-27T02:09:51.053Z,20.30
2023-02-27T02:12:21.995Z,17.50
2023-02-27T02:14:51.402Z,13.70
2023-02-27T02:17:22.660Z,12.80
2023-02-27T02:19:54.607Z,12.70
2023-02-27T02:22:36.018Z,13.20
2023-02-27T02:25:23.625Z,15.30
2023-02-27T02:28:08.509Z,14.60
2023-02-27T02:30:56.126Z,20.20
2023-02-27T02:33:31.573Z,22.00
2023-02-27T02:36:22.315Z,23.80
2023-02-27T02:38:52.939Z,31.70
2023-02-27T02:41:26.311Z,49.30
2023-02-27T02:44:03.561Z,48.50
2023-02-27T02:46:35.498Z,42.70
2023-02-27T02:49:29.708Z,27.20
2023-02-27T02:52:03.809Z,27.60
2023-02-27T02:54:45.761Z,24.70
2023-02-27T02:57:39.049Z,65.50
2023-02-27T03:00:12.527Z,38.20
2023-02-27T03:02:50.559Z,22.50
2023-02-27T03:05:23.058Z,32.00
2023-02-27T03:07:55.989Z,35.20
2023-02-27T03:10:31.169Z,38.50
2023-02-27T03:13:02.807Z,36.00
2023-02-27T03:18:17.712Z,22.10
2023-02-27T03:20:58.251Z,9.60
2023-02-27T03:23:35.208Z,7.30
2023-02-27T03:26:05.139Z,6.50
2023-02-27T03:28:36.160Z,5.60
2023-02-27T03:31:20.123Z,6.60
2023-02-27T03:33:55.928Z,5.40
2023-02-27T03:36:38.705Z,5.60
2023-02-27T03:42:04.246Z,4.90
2023-02-27T03:45:27.088Z,5.60
2023-02-27T03:47:56.206Z,5.80
2023-02-27T03:50:25.691Z,4.70
2023-02-27T03:52:55.016Z,4.90
2023-02-27T03:55:27.016Z,4.20
2023-02-27T03:57:55.760Z,4.20
2023-02-27T04:00:25.143Z,5.10
2023-02-27T04:02:57.614Z,4.90
2023-02-27T04:05:27.804Z,5.00
2023-02-27T04:08:08.679Z,5.70
2023-02-27T04:10:44.992Z,7.60
2023-02-27T04:13:55.361Z,8.10
2023-02-27T04:16:50.716Z,6.10
2023-02-27T04:19:29.680Z,7.50
2023-02-27T04:22:05.145Z,6.80
2023-02-27T04:24:39.765Z,5.90
2023-02-27T04:27:11.566Z,6.60
2023-02-27T04:29:59.925Z,5.90
2023-02-27T04:32:45.256Z,7.30
2023-02-27T04:35:17.659Z,5.90
2023-02-27T04:37:50.106Z,7.00
2023-02-27T04:40:21.173Z,8.10
2023-02-27T04:42:55.158Z,7.80
2023-02-27T04:45:26.179Z,6.80
2023-02-27T04:48:07.286Z,6.60
2023-02-27T04:50:46.557Z,6.50
2023-02-27T04:53:19.090Z,8.80
2023-02-27T04:55:55.068Z,10.00
2023-02-27T04:58:38.064Z,16.60
2023-02-27T05:01:13.808Z,22.40
2023-02-27T05:03:48.444Z,18.50
2023-02-27T05:06:18.544Z,22.60
2023-02-27T05:09:01.620Z,19.60
2023-02-27T05:14:19.045Z,22.50
2023-02-27T05:17:01.928Z,23.00
2023-02-27T05:19:32.603Z,25.80
2023-02-27T05:22:35.857Z,25.30
2023-02-27T05:27:47.302Z,23.20
2023-02-27T05:30:30.576Z,23.30
2023-02-27T05:33:12.284Z,26.20
2023-02-27T05:35:53.292Z,23.30
2023-02-27T05:38:26.486Z,25.30
2023-02-27T05:40:58.497Z,25.60
2023-02-27T05:46:28.098Z,38.90
2023-02-27T05:49:35.833Z,32.30
2023-02-27T05:52:05.249Z,35.60
2023-02-27T05:54:39.884Z,32.20
2023-02-27T05:57:10.777Z,34.90
2023-02-27T05:59:43.928Z,35.10
2023-02-27T06:02:12.729Z,39.00
2023-02-27T06:04:41.604Z,34.90
2023-02-27T06:07:13.124Z,34.90
2023-02-27T06:09:44.892Z,41.80
2023-02-27T06:12:14.061Z,40.60
2023-02-27T06:14:42.912Z,38.00
2023-02-27T06:17:12.990Z,40.30
2023-02-27T06:19:41.508Z,45.70
2023-02-27T06:22:11.470Z,54.70
2023-02-27T06:24:40.479Z,46.80
2023-02-27T06:27:09.620Z,43.20
2023-02-27T06:29:38.473Z,42.90
2023-02-27T06:32:07.125Z,39.50
2023-02-27T06:34:35.876Z,34.20
2023-02-27T06:37:04.796Z,36.60
2023-02-27T06:39:33.670Z,34.40
2023-02-27T06:42:02.826Z,43.80
2023-02-27T06:44:31.909Z,44.20
2023-02-27T06:47:00.596Z,39.40
2023-02-27T06:49:29.421Z,43.20
2023-02-27T06:51:58.683Z,42.90
2023-02-27T06:54:28.025Z,38.30
2023-02-27T06:56:56.834Z,42.90
2023-02-27T06:59:25.536Z,42.80
2023-02-27T07:01:54.129Z,40.50
2023-02-27T07:04:22.858Z,43.00
2023-02-27T07:07:34.391Z,40.60
2023-02-27T07:09:44.836Z,40.40
2023-02-27T07:12:13.647Z,39.70
2023-02-27T07:14:42.237Z,40.50
2023-02-27T07:17:11.311Z,34.80
2023-02-27T07:19:40.302Z,32.70
2023-02-27T07:22:09.924Z,31.90
2023-02-27T07:24:38.397Z,31.80
2023-02-27T07:27:07.467Z,37.70
2023-02-27T07:29:36.949Z,38.40
2023-02-27T07:32:05.777Z,41.10
2023-02-27T07:34:35.192Z,41.20
2023-02-27T07:37:06.929Z,30.50
2023-02-27T07:39:36.247Z,29.20
2023-02-27T07:42:04.957Z,36.30
2023-02-27T07:44:36.134Z,31.30
2023-02-27T07:47:04.798Z,35.10
2023-02-27T07:49:34.729Z,39.30
2023-02-27T07:52:03.428Z,38.60
2023-02-27T07:54:35.329Z,42.30
2023-02-27T07:57:05.648Z,42.90
2023-02-27T07:59:34.871Z,38.70
2023-02-27T08:02:04.255Z,39.10
2023-02-27T08:04:34.470Z,39.60
2023-02-27T08:07:03.577Z,47.50
2023-02-27T08:09:32.520Z,43.80
2023-02-27T08:12:03.204Z,42.10
2023-02-27T08:14:32.199Z,35.40
2023-02-27T08:17:01.488Z,37.50
2023-02-27T08:19:30.190Z,39.20
2023-02-27T08:21:58.871Z,37.30
2023-02-27T08:24:27.469Z,31.70
2023-02-27T08:26:57.527Z,34.60
2023-02-27T08:29:27.081Z,38.80
2023-02-27T08:31:56.305Z,39.00
2023-02-27T08:34:25.940Z,37.90
2023-02-27T08:36:55.276Z,37.70
2023-02-27T08:39:27.061Z,41.80
2023-02-27T08:41:55.942Z,41.00
2023-02-27T08:44:24.860Z,38.30
2023-02-27T08:46:54.197Z,33.90
2023-02-27T08:49:25.555Z,31.30
2023-02-27T08:51:54.456Z,28.50
2023-02-27T08:54:23.709Z,30.40
2023-02-27T08:56:53.084Z,26.70
2023-02-27T08:59:21.792Z,27.00
2023-02-27T09:01:52.370Z,26.20
2023-02-27T09:04:21.442Z,26.60
2023-02-27T09:06:50.129Z,27.90
2023-02-27T09:09:19.009Z,30.90
2023-02-27T09:11:48.589Z,30.30
2023-02-27T09:14:17.390Z,37.60
2023-02-27T09:16:52.117Z,37.80
2023-02-27T09:19:21.255Z,31.40
2023-02-27T09:21:49.831Z,31.20
2023-02-27T09:24:20.848Z,35.50
2023-02-27T09:26:50.532Z,35.70
2023-02-27T09:29:19.900Z,37.20
2023-02-27T09:31:49.488Z,36.50
2023-02-27T09:34:18.244Z,37.80
2023-02-27T09:36:47.842Z,30.10
2023-02-27T09:39:17.450Z,31.00
2023-02-27T09:41:56.799Z,32.20
2023-02-27T09:44:46.282Z,37.70
2023-02-27T09:47:24.801Z,37.10
2023-02-27T09:50:01.063Z,34.20
2023-02-27T09:52:32.117Z,39.90
2023-02-27T09:55:01.024Z,41.20
2023-02-27T09:58:02.166Z,40.40
2023-02-27T10:00:44.436Z,45.70
2023-02-27T10:03:26.474Z,39.00
2023-02-27T10:06:33.317Z,43.10
2023-02-27T10:09:15.413Z,33.00
2023-02-27T10:11:47.500Z,24.50
2023-02-27T10:14:41.846Z,29.50
2023-02-27T10:17:35.132Z,47.80
2023-02-27T10:20:09.882Z,40.00
2023-02-27T10:22:42.183Z,39.10
2023-02-27T10:25:31.332Z,49.00
2023-02-27T10:28:12.359Z,53.80
2023-02-27T10:30:41.460Z,50.70
2023-02-27T10:33:45.120Z,38.10
2023-02-27T10:36:32.582Z,33.00
2023-02-27T10:39:06.593Z,32.50
2023-02-27T10:41:36.508Z,33.10
2023-02-27T10:44:06.139Z,37.60
2023-02-27T10:46:35.820Z,40.80
2023-02-27T10:49:19.036Z,38.60
2023-02-27T10:52:09.046Z,43.80
2023-02-27T10:54:38.345Z,30.90
2023-02-27T10:57:26.624Z,31.30
2023-02-27T11:00:03.992Z,38.00
2023-02-27T11:02:40.320Z,41.80
2023-02-27T11:05:45.503Z,37.60
2023-02-27T11:08:27.242Z,26.00
2023-02-27T11:11:11.041Z,26.30
2023-02-27T11:13:43.520Z,24.70
2023-02-27T11:16:14.506Z,26.90
2023-02-27T11:18:48.932Z,25.90
2023-02-27T11:21:29.427Z,24.70
2023-02-27T11:24:20.049Z,24.50
2023-02-27T11:27:00.147Z,28.70
2023-02-27T11:29:29.405Z,38.10
2023-02-27T11:32:05.281Z,40.60
2023-02-27T11:34:40.187Z,42.50
2023-02-27T11:37:29.330Z,43.20
2023-02-27T11:40:13.505Z,43.50
2023-02-27T11:42:46.144Z,44.70
2023-02-27T11:46:13.313Z,46.00
2023-02-27T11:48:12.848Z,39.20
2023-02-27T11:51:00.168Z,45.60
2023-02-27T11:53:39.623Z,42.90
2023-02-27T11:56:11.104Z,46.50
2023-02-27T11:58:47.985Z,52.10
2023-02-27T12:01:23.788Z,53.80
2023-02-27T12:04:02.112Z,45.30
2023-02-27T12:06:37.496Z,31.10
2023-02-27T12:09:13.162Z,25.60
2023-02-27T12:11:45.173Z,22.70
2023-02-27T12:14:18.443Z,19.40
2023-02-27T12:16:54.351Z,21.60
2023-02-27T12:19:38.983Z,26.20
2023-02-27T12:22:35.831Z,33.30
2023-02-27T12:25:12.893Z,26.30
2023-02-27T12:27:52.264Z,24.30
2023-02-27T12:30:29.192Z,30.20
2023-02-27T12:33:13.157Z,30.80
2023-02-27T12:35:43.392Z,27.30
2023-02-27T12:38:13.755Z,23.80
2023-02-27T12:41:18.747Z,24.80
2023-02-27T12:43:56.610Z,23.60
2023-02-27T12:46:49.714Z,26.50
2023-02-27T12:49:25.760Z,20.70
2023-02-27T12:52:12.262Z,15.50
2023-02-27T12:54:54.073Z,14.00
2023-02-27T12:57:38.137Z,14.90
2023-02-27T13:00:19.223Z,38.60
2023-02-27T13:03:23.496Z,28.10
2023-02-27T13:06:17.006Z,12.80
2023-02-27T13:08:54.712Z,15.70
2023-02-27T13:11:38.520Z,11.70
2023-02-27T13:14:28.277Z,22.10
2023-02-27T13:17:02.314Z,17.00
2023-02-27T13:19:35.040Z,13.10
2023-02-27T13:24:43.856Z,14.60
2023-02-27T13:27:26.556Z,15.50
2023-02-27T13:30:08.119Z,18.10
2023-02-27T13:32:47.074Z,15.20
2023-02-27T13:35:42.206Z,16.30
2023-02-27T13:38:33.178Z,16.10
2023-02-27T13:41:20.203Z,23.10
2023-02-27T13:43:53.252Z,16.30
2023-02-27T13:46:28.820Z,19.20
2023-02-27T13:49:06.239Z,22.60
2023-02-27T13:51:34.990Z,21.90
2023-02-27T13:54:18.707Z,25.50
2023-02-27T13:56:59.612Z,31.10
2023-02-27T13:59:42.279Z,27.80
2023-02-27T14:02:13.653Z,23.30
2023-02-27T14:04:53.814Z,32.50
2023-02-27T14:07:24.298Z,30.50
2023-02-27T14:10:00.217Z,32.20
2023-02-27T14:12:44.048Z,41.00
2023-02-27T14:15:18.195Z,54.80
2023-02-27T14:17:54.435Z,39.00
2023-02-27T14:20:30.591Z,28.60
2023-02-27T14:23:17.479Z,32.40
2023-02-27T14:25:51.791Z,36.40
2023-02-27T14:28:32.030Z,31.50
2023-02-27T14:31:09.201Z,32.70
2023-02-27T14:33:54.296Z,36.40
2023-02-27T14:36:24.717Z,22.60
2023-02-27T14:38:57.840Z,21.70
2023-02-27T14:41:38.667Z,14.10
2023-02-27T14:44:22.557Z,13.30
2023-02-27T14:46:53.552Z,11.60
2023-02-27T14:49:29.745Z,10.10
2023-02-27T14:52:12.492Z,8.30
2023-02-27T14:54:44.795Z,8.30
2023-02-27T14:57:26.835Z,7.90
2023-02-27T14:59:55.440Z,7.70
2023-02-27T15:02:30.940Z,5.90
2023-02-27T15:05:03.622Z,6.30
2023-02-27T15:07:45.347Z,9.10
2023-02-27T15:10:20.741Z,8.20
2023-02-27T15:12:50.028Z,7.60
2023-02-27T15:15:20.833Z,8.70
2023-02-27T15:17:54.872Z,10.40
2023-02-27T15:20:25.684Z,10.60
2023-02-27T15:22:54.250Z,11.20
2023-02-27T15:25:34.627Z,6.70
2023-02-27T15:28:16.126Z,7.90
2023-02-27T15:30:49.543Z,9.50
2023-02-27T15:33:24.929Z,8.80
2023-02-27T15:35:53.694Z,8.10
2023-02-27T15:38:34.757Z,7.70
2023-02-27T15:41:03.925Z,7.30
2023-02-27T15:43:32.990Z,9.30
2023-02-27T15:46:02.068Z,9.90
2023-02-27T15:48:31.171Z,14.90
2023-02-27T15:51:01.280Z,10.10
2023-02-27T15:53:31.079Z,12.20
2023-02-27T15:56:01.817Z,20.00
2023-02-27T15:58:35.220Z,13.50
2023-02-27T16:01:09.445Z,8.90
2023-02-27T16:03:44.439Z,11.70
2023-02-27T16:06:23.594Z,14.60
2023-02-27T16:08:58.163Z,13.70
2023-02-27T16:11:37.525Z,8.10
2023-02-27T16:14:08.859Z,9.50
2023-02-27T16:16:38.720Z,12.90
2023-02-27T16:19:16.841Z,5.90
2023-02-27T16:22:03.735Z,5.60
2023-02-27T16:24:34.153Z,5.10
2023-02-27T16:27:03.428Z,6.40
2023-02-27T16:29:44.471Z,9.10
2023-02-27T16:32:25.572Z,7.40
2023-02-27T16:35:08.810Z,8.40
2023-02-27T16:37:39.114Z,11.70
2023-02-27T16:40:20.572Z,17.90
2023-02-27T16:42:49.761Z,21.00
2023-02-27T16:45:24.010Z,12.20
2023-02-27T16:47:55.128Z,6.10
2023-02-27T16:50:32.740Z,6.00
2023-02-27T16:53:01.690Z,4.60
2023-02-27T16:55:33.750Z,16.90
2023-02-27T16:58:03.113Z,13.10
2023-02-27T17:00:34.358Z,10.30
2023-02-27T17:03:03.379Z,8.80
2023-02-27T17:05:32.105Z,6.20
2023-02-27T17:08:03.014Z,10.00
2023-02-27T17:10:31.775Z,8.90
2023-02-27T17:13:01.505Z,9.30
2023-02-27T17:15:30.785Z,7.60
2023-02-27T17:18:00.913Z,11.00
2023-02-27T17:20:30.438Z,10.90
2023-02-27T17:23:00.197Z,11.30
2023-02-27T17:25:30.234Z,13.60
2023-02-27T17:27:59.217Z,13.50
2023-02-27T17:30:27.849Z,14.70
2023-02-27T17:32:58.714Z,16.90
2023-02-27T17:35:30.455Z,16.20
2023-02-27T17:37:59.912Z,17.00
2023-02-27T17:40:30.916Z,15.90
2023-02-27T17:42:59.863Z,15.20
2023-02-27T17:45:30.880Z,13.20
2023-02-27T17:47:59.914Z,16.00
2023-02-27T17:50:28.759Z,22.90
2023-02-27T17:52:58.541Z,28.90
2023-02-27T17:55:27.153Z,30.10
2023-02-27T17:57:59.341Z,34.80
2023-02-27T18:00:28.010Z,29.20
2023-02-27T18:02:57.737Z,15.10
2023-02-27T18:05:26.752Z,10.20
2023-02-27T18:07:57.763Z,7.40
2023-02-27T18:10:28.793Z,10.00
2023-02-27T18:12:57.646Z,12.10
2023-02-27T18:15:27.434Z,14.00
2023-02-27T18:17:55.938Z,14.30
2023-02-27T18:20:24.489Z,17.30
2023-02-27T18:22:53.294Z,11.50
2023-02-27T18:25:23.645Z,12.20
2023-02-27T18:27:55.249Z,10.20
2023-02-27T18:30:24.955Z,8.20
2023-02-27T18:32:56.654Z,8.00
2023-02-27T18:35:25.591Z,8.20
2023-02-27T18:37:54.661Z,6.50
2023-02-27T18:40:25.296Z,6.50
2023-02-27T18:42:55.734Z,7.30
2023-02-27T18:45:24.944Z,8.10
2023-02-27T18:47:54.448Z,9.60
2023-02-27T18:50:23.639Z,10.40
2023-02-27T18:52:52.797Z,13.50
2023-02-27T18:55:21.462Z,12.80
2023-02-27T18:57:51.168Z,7.20
2023-02-27T19:00:22.009Z,6.80
2023-02-27T19:02:51.926Z,6.20
2023-02-27T19:05:22.313Z,7.00
2023-02-27T19:07:54.129Z,7.80
2023-02-27T19:10:28.470Z,10.50
2023-02-27T19:12:58.895Z,12.40
2023-02-27T19:15:28.908Z,14.40
2023-02-27T19:17:58.775Z,13.30
2023-02-27T19:20:27.844Z,10.30
2023-02-27T19:22:56.889Z,10.90
2023-02-27T19:25:25.744Z,10.40
2023-02-27T19:27:56.228Z,11.40
2023-02-27T19:30:25.663Z,10.30
2023-02-27T19:32:55.541Z,14.30
2023-02-27T19:35:24.512Z,17.00
2023-02-27T19:37:58.416Z,25.70
2023-02-27T19:40:31.634Z,23.60
2023-02-27T19:43:01.266Z,25.30
2023-02-27T19:45:30.225Z,19.70
2023-02-27T19:48:01.850Z,15.30
2023-02-27T19:50:31.137Z,16.40
2023-02-27T19:53:00.278Z,13.90
2023-02-27T19:55:29.184Z,15.20
2023-02-27T19:57:59.577Z,15.20
2023-02-27T20:00:28.221Z,15.70
2023-02-27T20:02:57.268Z,16.10
2023-02-27T20:05:26.263Z,16.00
2023-02-27T20:07:55.204Z,16.90
2023-02-27T20:10:26.260Z,16.50
2023-02-27T20:12:55.458Z,18.40
2023-02-27T20:15:31.115Z,15.90
2023-02-27T20:18:00.314Z,16.00
2023-02-27T20:20:31.729Z,16.50
2023-02-27T20:23:00.834Z,15.30
2023-02-27T20:25:29.820Z,21.90
2023-02-27T20:27:59.638Z,22.00
2023-02-27T20:30:28.482Z,26.40
2023-02-27T20:32:58.622Z,22.20
2023-02-27T20:35:27.316Z,27.50
2023-02-27T20:37:58.618Z,25.00
2023-02-27T20:40:29.417Z,22.60
2023-02-27T20:42:58.675Z,21.30
2023-02-27T20:45:28.546Z,29.50
2023-02-27T20:47:57.231Z,25.90
2023-02-27T20:50:25.935Z,22.70
2023-02-27T20:52:55.397Z,17.10
2023-02-27T20:55:24.050Z,16.30
2023-02-27T20:57:52.575Z,16.70
2023-02-27T21:00:22.313Z,14.80
2023-02-27T21:02:51.269Z,18.20
2023-02-27T21:05:20.120Z,22.70
2023-02-27T21:07:51.115Z,22.90
2023-02-27T21:10:19.948Z,26.60
2023-02-27T21:12:53.569Z,26.70
2023-02-27T21:15:28.634Z,25.00
2023-02-27T21:17:57.233Z,22.40
2023-02-27T21:20:26.924Z,22.30
2023-02-27T21:22:56.106Z,19.30
2023-02-27T21:25:25.398Z,22.40
2023-02-27T21:28:02.473Z,19.30
2023-02-27T21:30:31.958Z,19.10
2023-02-27T21:33:03.396Z,24.10
2023-02-27T21:38:01.838Z,21.80
2023-02-27T21:40:30.244Z,27.40
2023-02-27T21:42:59.573Z,33.40
2023-02-27T21:45:28.558Z,30.10
2023-02-27T21:47:58.969Z,20.00
2023-02-27T21:50:29.408Z,23.30
2023-02-27T21:52:59.268Z,23.70
2023-02-27T21:55:27.786Z,22.90
2023-02-27T21:58:04.293Z,22.40
2023-02-27T22:00:37.189Z,17.40
2023-02-27T22:03:06.418Z,20.10
2023-02-27T22:05:36.360Z,26.80
2023-02-27T22:08:04.980Z,43.40
2023-02-27T22:10:45.908Z,37.90
2023-02-27T22:13:14.969Z,51.50
2023-02-27T22:15:43.589Z,49.70
2023-02-27T22:18:15.007Z,50.10
2023-02-27T22:20:44.064Z,57.40
2023-02-27T22:23:13.345Z,49.60
2023-02-27T22:25:42.847Z,49.00
2023-02-27T22:28:11.427Z,44.80
2023-02-27T22:30:40.101Z,43.70
2023-02-27T22:33:09.208Z,41.60
2023-02-27T22:35:38.425Z,47.80
2023-02-27T22:38:07.353Z,61.30
2023-02-27T22:40:40.537Z,74.10
2023-02-27T22:43:11.505Z,59.30
2023-02-27T22:45:46.403Z,67.30
2023-02-27T22:48:14.916Z,73.30
2023-02-27T22:50:46.504Z,56.10
2023-02-27T22:53:15.439Z,50.30
2023-02-27T22:55:53.217Z,66.10
2023-02-27T22:58:25.668Z,44.50
2023-02-27T23:00:54.768Z,36.40
2023-02-27T23:03:23.860Z,38.70
2023-02-27T23:05:52.507Z,41.20
2023-02-27T23:08:21.881Z,30.70
2023-02-27T23:10:53.868Z,48.30
2023-02-27T23:13:22.374Z,39.40
2023-02-27T23:15:51.585Z,46.90
2023-02-27T23:18:23.411Z,34.00
2023-02-27T23:20:53.552Z,35.20
2023-02-27T23:23:23.079Z,34.00
2023-02-27T23:25:52.855Z,20.30
2023-02-27T23:28:23.960Z,20.20
2023-02-27T23:30:52.656Z,16.50
2023-02-27T23:33:21.252Z,18.00
2023-02-27T23:35:49.944Z,19.80
2023-02-27T23:38:19.081Z,22.60
2023-02-27T23:40:50.116Z,35.90
2023-02-27T23:43:19.222Z,23.50
2023-02-27T23:45:48.477Z,23.60
2023-02-27T23:48:17.614Z,19.70
2023-02-27T23:50:48.570Z,18.30
2023-02-27T23:53:17.509Z,18.20
2023-02-27T23:55:46.197Z,19.20
2023-02-27T23:58:15.600Z,20.90
